createdAt,value
2022-09-28T00:00:55.622Z,19.99
2022-09-28T00:01:55.756Z,19.99
2022-09-28T00:02:55.667Z,19.99
2022-09-28T00:03:55.590Z,19.99
2022-09-28T00:04:55.582Z,20.01
2022-09-28T00:05:55.568Z,19.99
2022-09-28T00:06:55.558Z,19.99
2022-09-28T00:07:55.572Z,19.98
2022-09-28T00:08:55.539Z,19.99
2022-09-28T00:09:55.549Z,19.99
2022-09-28T00:10:55.516Z,19.98
2022-09-28T00:11:55.506Z,19.99
2022-09-28T00:12:55.509Z,19.99
2022-09-28T00:13:55.488Z,19.98
2022-09-28T00:14:55.496Z,19.99
2022-09-28T00:15:55.569Z,19.98
2022-09-28T00:16:55.457Z,19.99
2022-09-28T00:17:55.443Z,19.99
2022-09-28T00:18:55.453Z,19.98
2022-09-28T00:19:55.446Z,19.98
2022-09-28T00:20:55.410Z,19.99
2022-09-28T00:21:55.401Z,19.98
2022-09-28T00:22:55.394Z,19.99
2022-09-28T00:23:55.410Z,19.98
2022-09-28T00:24:55.368Z,19.98
2022-09-28T00:25:55.359Z,19.98
2022-09-28T00:26:55.357Z,19.98
2022-09-28T00:27:55.337Z,19.98
2022-09-28T00:28:55.327Z,19.98
2022-09-28T00:29:55.338Z,19.98
2022-09-28T00:30:55.317Z,19.98
2022-09-28T00:31:55.464Z,19.98
2022-09-28T00:32:55.285Z,19.99
2022-09-28T00:33:55.274Z,19.98
2022-09-28T00:34:55.265Z,19.96
2022-09-28T00:35:55.272Z,19.98
2022-09-28T00:36:55.250Z,19.98
2022-09-28T00:37:55.232Z,19.98
2022-09-28T00:38:55.222Z,19.98
2022-09-28T00:39:55.232Z,19.98
2022-09-28T00:40:55.249Z,19.96
2022-09-28T00:41:55.190Z,19.98
2022-09-28T00:42:55.200Z,19.98
2022-09-28T00:43:55.178Z,19.98
2022-09-28T00:44:55.179Z,19.98
2022-09-28T00:45:55.217Z,19.98
2022-09-28T00:46:55.140Z,19.96
2022-09-28T00:47:55.155Z,19.96
2022-09-28T00:48:55.118Z,19.98
2022-09-28T00:49:55.126Z,19.96
2022-09-28T00:50:55.094Z,19.98
2022-09-28T00:51:55.083Z,19.96
2022-09-28T00:52:55.073Z,19.98
2022-09-28T00:53:55.064Z,19.96
2022-09-28T00:54:55.090Z,19.96
2022-09-28T00:55:55.048Z,19.96
2022-09-28T00:56:55.033Z,19.96
2022-09-28T00:57:55.040Z,19.98
2022-09-28T00:58:55.016Z,19.96
2022-09-28T00:59:55.022Z,19.98
2022-09-28T01:00:55.071Z,19.95
2022-09-28T01:01:55.017Z,19.96
2022-09-28T01:02:54.989Z,19.98
2022-09-28T01:03:54.980Z,19.96
2022-09-28T01:04:54.948Z,19.98
2022-09-28T01:05:54.935Z,19.96
2022-09-28T01:06:54.928Z,19.96
2022-09-28T01:07:54.936Z,19.96
2022-09-28T01:08:54.906Z,19.96
2022-09-28T01:09:54.914Z,19.96
2022-09-28T01:10:54.883Z,19.96
2022-09-28T01:11:54.872Z,19.96
2022-09-28T01:12:54.861Z,19.96
2022-09-28T01:13:54.850Z,19.95
2022-09-28T01:14:54.862Z,19.95
2022-09-28T01:15:54.899Z,19.96
2022-09-28T01:16:54.821Z,19.96
2022-09-28T01:17:54.829Z,19.95
2022-09-28T01:18:54.800Z,19.96
2022-09-28T01:19:54.812Z,19.95
2022-09-28T01:20:54.778Z,19.96
2022-09-28T01:21:54.796Z,19.95
2022-09-28T01:22:54.759Z,19.95
2022-09-28T01:23:54.746Z,19.96
2022-09-28T01:24:54.736Z,19.96
2022-09-28T01:25:54.725Z,19.96
2022-09-28T01:26:54.717Z,19.95
2022-09-28T01:27:54.734Z,19.96
2022-09-28T01:28:54.693Z,19.96
2022-09-28T01:29:54.682Z,19.95
2022-09-28T01:30:54.674Z,19.95
2022-09-28T01:31:54.766Z,19.96
2022-09-28T01:32:54.665Z,19.95
2022-09-28T01:33:54.660Z,19.95
2022-09-28T01:34:54.654Z,19.95
2022-09-28T01:35:54.670Z,19.95
2022-09-28T01:36:54.610Z,19.96
2022-09-28T01:37:54.597Z,19.95
2022-09-28T01:38:54.590Z,19.95
2022-09-28T01:39:54.574Z,19.96
2022-09-28T01:40:54.621Z,19.95
2022-09-28T01:41:54.563Z,19.96
2022-09-28T01:42:54.545Z,19.96
2022-09-28T01:43:54.537Z,19.95
2022-09-28T01:44:54.524Z,19.96
2022-09-28T01:45:54.642Z,19.95
2022-09-28T01:46:54.503Z,19.95
2022-09-28T01:47:54.493Z,19.95
2022-09-28T01:48:54.484Z,19.94
2022-09-28T01:49:54.495Z,19.95
2022-09-28T01:50:54.463Z,19.94
2022-09-28T01:51:54.472Z,19.94
2022-09-28T01:52:54.440Z,19.95
2022-09-28T01:53:54.429Z,19.96
2022-09-28T01:54:54.440Z,19.94
2022-09-28T01:55:54.416Z,19.95
2022-09-28T01:56:54.399Z,19.94
2022-09-28T01:57:54.386Z,19.95
2022-09-28T01:58:54.384Z,19.92
2022-09-28T01:59:54.387Z,19.95
2022-09-28T02:00:54.414Z,19.95
2022-09-28T02:01:54.361Z,19.94
2022-09-28T02:02:54.338Z,19.94
2022-09-28T02:03:54.368Z,19.95
2022-09-28T02:04:54.315Z,19.94
2022-09-28T02:05:54.302Z,19.95
2022-09-28T02:06:54.292Z,19.95
2022-09-28T02:07:54.326Z,19.94
2022-09-28T02:08:54.270Z,19.95
2022-09-28T02:09:54.260Z,19.94
2022-09-28T02:10:54.270Z,19.94
2022-09-28T02:11:54.239Z,19.95
2022-09-28T02:12:54.235Z,19.94
2022-09-28T02:13:54.218Z,19.94
2022-09-28T02:14:54.206Z,19.94
2022-09-28T02:15:54.290Z,19.95
2022-09-28T02:16:54.189Z,19.95
2022-09-28T02:17:54.197Z,19.94
2022-09-28T02:18:54.164Z,19.94
2022-09-28T02:19:54.156Z,19.94
2022-09-28T02:20:54.167Z,19.94
2022-09-28T02:21:54.136Z,19.94
2022-09-28T02:22:54.122Z,19.94
2022-09-28T02:23:54.138Z,19.94
2022-09-28T02:24:54.101Z,19.92
2022-09-28T02:25:54.114Z,19.94
2022-09-28T02:26:54.082Z,19.95
2022-09-28T02:27:54.074Z,19.94
2022-09-28T02:28:54.066Z,19.94
2022-09-28T02:29:54.055Z,19.92
2022-09-28T02:30:54.061Z,19.92
2022-09-28T02:31:54.064Z,19.94
2022-09-28T02:32:54.017Z,19.94
2022-09-28T02:33:54.030Z,19.92
2022-09-28T02:34:53.998Z,19.94
2022-09-28T02:35:53.988Z,19.94
2022-09-28T02:36:53.975Z,19.94
2022-09-28T02:37:53.968Z,19.92
2022-09-28T02:38:53.977Z,19.94
2022-09-28T02:39:53.978Z,19.94
2022-09-28T02:40:53.982Z,19.92
2022-09-28T02:41:53.927Z,19.94
2022-09-28T02:42:53.913Z,19.94
2022-09-28T02:43:53.924Z,19.94
2022-09-28T02:44:53.894Z,19.92
2022-09-28T02:45:53.913Z,19.94
2022-09-28T02:46:53.870Z,19.92
2022-09-28T02:47:53.861Z,19.92
2022-09-28T02:49:10.690Z,19.94
2022-09-28T02:49:54.838Z,19.92
2022-09-28T02:50:53.862Z,19.92
2022-09-28T02:51:53.849Z,19.92
2022-09-28T02:52:53.807Z,19.92
2022-09-28T02:53:53.798Z,19.92
2022-09-28T02:54:53.786Z,19.92
2022-09-28T02:55:53.801Z,19.92
2022-09-28T02:56:53.787Z,19.92
2022-09-28T02:57:53.754Z,19.92
2022-09-28T02:58:53.745Z,19.92
2022-09-28T02:59:53.735Z,19.94
2022-09-28T03:00:53.768Z,19.92
2022-09-28T03:01:53.793Z,19.92
2022-09-28T03:02:53.703Z,19.92
2022-09-28T03:03:53.712Z,19.92
2022-09-28T03:04:53.679Z,19.92
2022-09-28T03:05:53.672Z,19.92
2022-09-28T03:06:53.659Z,19.92
2022-09-28T03:07:53.649Z,19.94
2022-09-28T03:08:53.660Z,19.92
2022-09-28T03:09:53.628Z,19.92
2022-09-28T03:10:53.618Z,19.94
2022-09-28T03:11:53.633Z,19.92
2022-09-28T03:12:53.626Z,19.92
2022-09-28T03:13:53.590Z,19.92
2022-09-28T03:14:53.577Z,19.92
2022-09-28T03:15:53.673Z,19.91
2022-09-28T03:16:53.553Z,19.91
2022-09-28T03:17:53.542Z,19.92
2022-09-28T03:18:53.559Z,19.88
2022-09-28T03:19:53.526Z,19.91
2022-09-28T03:20:53.511Z,19.92
2022-09-28T03:21:53.503Z,19.92
2022-09-28T03:23:12.769Z,19.92
2022-09-28T03:23:54.505Z,19.92
2022-09-28T03:24:53.467Z,19.91
2022-09-28T03:25:53.463Z,19.91
2022-09-28T03:26:53.448Z,19.91
2022-09-28T03:27:53.464Z,19.91
2022-09-28T03:28:53.428Z,19.91
2022-09-28T03:29:53.438Z,19.92
2022-09-28T03:30:53.405Z,19.92
2022-09-28T03:31:53.477Z,19.91
2022-09-28T03:32:53.384Z,19.91
2022-09-28T03:33:53.374Z,19.91
2022-09-28T03:34:53.384Z,19.91
2022-09-28T03:35:53.360Z,19.91
2022-09-28T03:36:53.343Z,19.88
2022-09-28T03:37:53.335Z,19.91
2022-09-28T03:38:53.351Z,19.91
2022-09-28T03:39:53.311Z,19.88
2022-09-28T03:40:53.406Z,19.91
2022-09-28T03:41:53.293Z,19.88
2022-09-28T03:42:53.279Z,19.91
2022-09-28T03:43:53.315Z,19.91
2022-09-28T03:44:53.257Z,19.91
2022-09-28T03:45:53.331Z,19.91
2022-09-28T03:46:53.238Z,19.91
2022-09-28T03:47:53.236Z,19.91
2022-09-28T03:48:53.241Z,19.88
2022-09-28T03:49:53.210Z,19.88
2022-09-28T03:50:53.197Z,19.88
2022-09-28T03:51:53.184Z,19.91
2022-09-28T03:52:53.175Z,19.91
2022-09-28T03:53:53.185Z,19.88
2022-09-28T03:54:53.155Z,19.91
2022-09-28T03:55:53.142Z,19.91
2022-09-28T03:56:53.205Z,19.91
2022-09-28T03:57:53.120Z,19.88
2022-09-28T03:58:53.157Z,19.88
2022-09-28T03:59:53.125Z,19.91
2022-09-28T04:00:53.190Z,19.88
2022-09-28T04:01:53.217Z,19.88
2022-09-28T04:02:53.070Z,19.88
2022-09-28T04:03:53.087Z,19.91
2022-09-28T04:04:53.054Z,19.88
2022-09-28T04:05:53.044Z,19.88
2022-09-28T04:06:53.028Z,19.91
2022-09-28T04:07:53.014Z,19.88
2022-09-28T04:08:53.004Z,19.88
2022-09-28T04:09:53.015Z,19.88
2022-09-28T04:10:52.984Z,19.88
2022-09-28T04:12:03.462Z,19.87
2022-09-28T04:12:53.961Z,19.88
2022-09-28T04:13:52.951Z,19.88
2022-09-28T04:14:52.965Z,19.88
2022-09-28T04:15:52.952Z,19.88
2022-09-28T04:16:52.970Z,19.88
2022-09-28T04:17:52.907Z,19.88
2022-09-28T04:18:52.902Z,19.87
2022-09-28T04:19:52.919Z,19.88
2022-09-28T04:20:52.880Z,19.88
2022-09-28T04:21:52.866Z,19.87
2022-09-28T04:22:52.881Z,19.87
2022-09-28T04:23:52.846Z,19.95
2022-09-28T04:24:52.837Z,19.87
2022-09-28T04:25:52.826Z,19.88
2022-09-28T04:26:52.838Z,19.88
2022-09-28T04:27:52.831Z,19.87
2022-09-28T04:28:52.796Z,19.88
2022-09-28T04:29:52.783Z,19.87
2022-09-28T04:30:52.802Z,19.88
2022-09-28T04:31:52.911Z,19.87
2022-09-28T04:32:52.756Z,19.87
2022-09-28T04:33:52.741Z,19.87
2022-09-28T04:34:52.734Z,19.87
2022-09-28T04:35:52.718Z,19.88
2022-09-28T04:36:52.731Z,19.87
2022-09-28T04:37:52.698Z,19.87
2022-09-28T04:38:53.715Z,19.88
2022-09-28T04:39:52.700Z,19.88
2022-09-28T04:40:52.786Z,19.88
2022-09-28T04:41:52.655Z,19.87
2022-09-28T04:42:52.645Z,19.88
2022-09-28T04:43:52.634Z,19.88
2022-09-28T04:44:52.663Z,19.88
2022-09-28T04:45:52.675Z,19.88
2022-09-28T04:46:52.605Z,19.87
2022-09-28T04:47:52.637Z,19.87
2022-09-28T04:48:52.651Z,19.87
2022-09-28T04:49:52.571Z,19.87
2022-09-28T04:50:52.563Z,19.86
2022-09-28T04:51:52.550Z,19.87
2022-09-28T04:52:52.542Z,19.87
2022-09-28T04:53:52.571Z,19.87
2022-09-28T04:54:52.520Z,19.88
2022-09-28T04:55:52.508Z,19.88
2022-09-28T04:56:52.500Z,19.87
2022-09-28T04:57:52.489Z,19.87
2022-09-28T04:58:52.978Z,19.87
2022-09-28T04:59:52.491Z,19.88
2022-09-28T05:00:52.476Z,19.87
2022-09-28T05:01:52.605Z,19.87
2022-09-28T05:02:52.433Z,19.86
2022-09-28T05:03:52.445Z,19.88
2022-09-28T05:04:52.413Z,19.87
2022-09-28T05:05:52.401Z,19.87
2022-09-28T05:06:52.430Z,19.87
2022-09-28T05:07:52.382Z,19.86
2022-09-28T05:08:52.405Z,19.87
2022-09-28T05:09:52.358Z,19.87
2022-09-28T05:10:52.351Z,19.87
2022-09-28T05:11:52.341Z,19.87
2022-09-28T05:12:52.329Z,19.87
2022-09-28T05:13:52.318Z,19.86
2022-09-28T05:14:52.404Z,19.87
2022-09-28T05:15:56.979Z,19.87
2022-09-28T05:16:53.421Z,19.86
2022-09-28T05:17:52.275Z,19.86
2022-09-28T05:18:52.268Z,19.86
2022-09-28T05:19:52.283Z,19.87
2022-09-28T05:20:52.358Z,19.87
2022-09-28T05:21:52.234Z,19.87
2022-09-28T05:22:52.225Z,19.86
2022-09-28T05:23:52.213Z,19.87
2022-09-28T05:24:52.203Z,19.86
2022-09-28T05:25:52.191Z,19.88
2022-09-28T05:26:52.273Z,19.87
2022-09-28T05:27:52.207Z,19.86
2022-09-28T05:28:52.162Z,19.86
2022-09-28T05:29:52.150Z,19.87
2022-09-28T05:30:52.170Z,19.86
2022-09-28T05:31:52.153Z,19.87
2022-09-28T05:32:52.653Z,19.86
2022-09-28T05:33:52.107Z,19.86
2022-09-28T05:34:52.104Z,19.86
2022-09-28T05:35:55.167Z,19.86
2022-09-28T05:36:52.078Z,19.86
2022-09-28T05:37:52.069Z,19.87
2022-09-28T05:38:52.115Z,19.87
2022-09-28T05:39:52.065Z,19.86
2022-09-28T05:40:52.040Z,19.86
2022-09-28T05:41:52.022Z,19.86
2022-09-28T05:42:52.015Z,19.86
2022-09-28T05:43:52.001Z,19.86
2022-09-28T05:44:52.126Z,19.86
2022-09-28T05:45:55.691Z,19.87
2022-09-28T05:46:51.973Z,19.86
2022-09-28T05:47:51.958Z,19.86
2022-09-28T05:48:51.955Z,19.86
2022-09-28T05:49:51.939Z,19.86
2022-09-28T05:50:51.995Z,19.86
2022-09-28T05:51:51.971Z,19.86
2022-09-28T05:52:51.907Z,19.84
2022-09-28T05:53:51.896Z,19.86
2022-09-28T05:54:52.161Z,19.86
2022-09-28T05:55:51.880Z,19.86
2022-09-28T05:56:51.869Z,19.84
2022-09-28T05:57:51.853Z,19.86
2022-09-28T05:58:51.848Z,19.84
2022-09-28T05:59:51.835Z,19.86
2022-09-28T06:00:52.337Z,19.86
2022-09-28T06:01:51.810Z,19.86
2022-09-28T06:02:51.882Z,19.84
2022-09-28T06:03:51.791Z,19.86
2022-09-28T06:04:51.780Z,19.86
2022-09-28T06:05:51.813Z,19.86
2022-09-28T06:06:51.760Z,19.84
2022-09-28T06:07:51.809Z,19.86
2022-09-28T06:08:51.741Z,19.86
2022-09-28T06:09:51.728Z,19.84
2022-09-28T06:10:51.718Z,19.84
2022-09-28T06:11:51.743Z,19.86
2022-09-28T06:12:51.696Z,19.86
2022-09-28T06:13:51.685Z,19.86
2022-09-28T06:14:51.677Z,19.86
2022-09-28T06:15:51.669Z,19.86
2022-09-28T06:16:51.784Z,19.84
2022-09-28T06:17:51.641Z,19.84
2022-09-28T06:18:51.638Z,19.86
2022-09-28T06:19:51.623Z,19.84
2022-09-28T06:20:51.616Z,19.86
2022-09-28T06:21:51.601Z,19.86
2022-09-28T06:22:52.114Z,19.84
2022-09-28T06:23:51.650Z,19.84
2022-09-28T06:24:51.569Z,19.84
2022-09-28T06:25:51.588Z,19.84
2022-09-28T06:26:51.548Z,19.86
2022-09-28T06:27:51.539Z,19.86
2022-09-28T06:28:51.701Z,19.84
2022-09-28T06:29:51.520Z,19.84
2022-09-28T06:30:51.618Z,19.84
2022-09-28T06:31:51.569Z,19.86
2022-09-28T06:32:51.511Z,19.84
2022-09-28T06:33:51.478Z,19.84
2022-09-28T06:34:56.038Z,19.84
2022-09-28T06:35:51.456Z,19.84
2022-09-28T06:36:51.443Z,19.84
2022-09-28T06:37:51.433Z,19.84
2022-09-28T06:38:51.462Z,19.83
2022-09-28T06:39:51.437Z,19.84
2022-09-28T06:40:51.440Z,19.86
2022-09-28T06:41:51.390Z,19.86
2022-09-28T06:42:51.380Z,19.84
2022-09-28T06:43:51.413Z,19.86
2022-09-28T06:44:51.357Z,19.86
2022-09-28T06:45:51.455Z,19.86
2022-09-28T06:46:51.337Z,19.87
2022-09-28T06:47:51.329Z,19.87
2022-09-28T06:48:51.735Z,19.86
2022-09-28T06:49:51.308Z,19.87
2022-09-28T06:50:53.233Z,19.88
2022-09-28T06:51:51.286Z,19.88
2022-09-28T06:52:51.276Z,19.91
2022-09-28T06:53:51.268Z,19.91
2022-09-28T06:54:51.253Z,19.88
2022-09-28T06:55:51.271Z,19.91
2022-09-28T06:56:51.331Z,19.91
2022-09-28T06:57:51.301Z,19.92
2022-09-28T06:58:51.213Z,19.91
2022-09-28T06:59:51.203Z,19.92
2022-09-28T07:00:51.255Z,19.92
2022-09-28T07:01:51.234Z,19.92
2022-09-28T07:02:51.168Z,19.92
2022-09-28T07:03:55.537Z,19.94
2022-09-28T07:04:51.148Z,19.94
2022-09-28T07:05:51.141Z,19.94
2022-09-28T07:06:51.202Z,19.95
2022-09-28T07:07:51.120Z,19.96
2022-09-28T07:09:02.038Z,19.95
2022-09-28T07:09:55.235Z,19.94
2022-09-28T07:10:51.387Z,19.95
2022-09-28T07:11:51.102Z,19.95
2022-09-28T07:12:51.065Z,19.95
2022-09-28T07:13:51.649Z,19.94
2022-09-28T07:14:51.213Z,19.94
2022-09-28T07:15:51.214Z,19.95
2022-09-28T07:17:11.604Z,19.94
2022-09-28T07:18:01.419Z,19.94
2022-09-28T07:18:51.999Z,19.95
2022-09-28T07:19:50.994Z,19.94
2022-09-28T07:20:54.435Z,19.92
2022-09-28T07:22:02.608Z,19.94
2022-09-28T07:22:51.958Z,19.94
2022-09-28T07:23:54.036Z,19.94
2022-09-28T07:24:50.937Z,19.95
2022-09-28T07:25:50.926Z,19.94
2022-09-28T07:26:50.959Z,19.94
2022-09-28T07:27:50.935Z,19.92
2022-09-28T07:28:50.898Z,19.94
2022-09-28T07:29:50.887Z,19.94
2022-09-28T07:30:50.967Z,19.92
2022-09-28T07:31:50.866Z,19.94
2022-09-28T07:32:50.911Z,19.95
2022-09-28T07:33:50.848Z,19.94
2022-09-28T07:34:52.482Z,19.92
2022-09-28T07:35:50.825Z,19.92
2022-09-28T07:36:50.814Z,19.92
2022-09-28T07:37:50.862Z,19.94
2022-09-28T07:38:50.790Z,19.94
2022-09-28T07:39:50.780Z,19.94
2022-09-28T07:40:50.858Z,19.95
2022-09-28T07:41:50.760Z,19.95
2022-09-28T07:42:50.787Z,19.96
2022-09-28T07:43:50.770Z,19.98
2022-09-28T07:44:50.725Z,19.99
2022-09-28T07:45:50.790Z,20.01
2022-09-28T07:46:50.705Z,20.01
2022-09-28T07:47:50.748Z,20.02
2022-09-28T07:48:50.687Z,20.03
2022-09-28T07:49:50.674Z,20.03
2022-09-28T07:50:50.670Z,20.05
2022-09-28T07:51:50.655Z,20.06
2022-09-28T07:52:50.642Z,20.08
2022-09-28T07:53:50.683Z,20.08
2022-09-28T07:54:50.620Z,20.10
2022-09-28T07:55:50.613Z,20.08
2022-09-28T07:56:50.601Z,20.11
2022-09-28T07:57:50.699Z,20.10
2022-09-28T07:58:50.628Z,20.13
2022-09-28T07:59:50.593Z,20.13
2022-09-28T08:00:50.678Z,20.13
2022-09-28T08:01:50.554Z,20.13
2022-09-28T08:02:50.539Z,20.13
2022-09-28T08:03:50.550Z,20.14
2022-09-28T08:04:50.515Z,20.13
2022-09-28T08:05:50.511Z,20.14
2022-09-28T08:06:50.496Z,20.14
2022-09-28T08:07:50.487Z,20.14
2022-09-28T08:08:50.554Z,20.16
2022-09-28T08:09:50.609Z,20.16
2022-09-28T08:10:50.494Z,20.17
2022-09-28T08:11:50.453Z,20.16
2022-09-28T08:12:50.433Z,20.16
2022-09-28T08:13:50.450Z,20.16
2022-09-28T08:14:50.412Z,20.17
2022-09-28T08:15:50.515Z,20.17
2022-09-28T08:16:53.106Z,20.17
2022-09-28T08:17:50.380Z,20.17
2022-09-28T08:18:50.367Z,20.17
2022-09-28T08:19:50.356Z,20.16
2022-09-28T08:20:51.645Z,20.17
2022-09-28T08:21:50.335Z,20.17
2022-09-28T08:22:50.427Z,20.16
2022-09-28T08:23:50.315Z,20.17
2022-09-28T08:24:50.303Z,20.17
2022-09-28T08:25:50.319Z,20.17
2022-09-28T08:26:50.282Z,20.16
2022-09-28T08:27:50.278Z,20.17
2022-09-28T08:28:50.265Z,20.18
2022-09-28T08:29:50.342Z,20.17
2022-09-28T08:30:50.393Z,20.17
2022-09-28T08:31:50.264Z,20.18
2022-09-28T08:32:50.220Z,20.18
2022-09-28T08:33:50.211Z,20.17
2022-09-28T08:34:50.199Z,20.17
2022-09-28T08:35:50.293Z,20.17
2022-09-28T08:36:50.176Z,20.16
2022-09-28T08:37:54.623Z,20.17
2022-09-28T08:38:51.211Z,20.16
2022-09-28T08:39:50.148Z,20.17
2022-09-28T08:40:50.236Z,20.17
2022-09-28T08:41:50.126Z,20.17
2022-09-28T08:42:50.113Z,20.17
2022-09-28T08:43:50.103Z,20.17
2022-09-28T08:44:50.204Z,20.17
2022-09-28T08:45:50.158Z,20.17
2022-09-28T08:46:50.137Z,20.18
2022-09-28T08:47:50.089Z,20.17
2022-09-28T08:49:13.038Z,20.18
2022-09-28T08:49:51.152Z,20.17
2022-09-28T08:50:50.029Z,20.18
2022-09-28T08:51:50.022Z,20.18
2022-09-28T08:52:50.150Z,20.18
2022-09-28T08:53:50.000Z,20.18
2022-09-28T08:54:49.988Z,20.20
2022-09-28T08:55:49.977Z,20.20
2022-09-28T08:56:49.967Z,20.20
2022-09-28T08:57:49.981Z,20.21
2022-09-28T08:58:49.944Z,20.20
2022-09-28T08:59:49.942Z,20.20
2022-09-28T09:00:49.988Z,20.20
2022-09-28T09:01:49.915Z,20.20
2022-09-28T09:02:50.047Z,20.20
2022-09-28T09:03:49.916Z,20.23
2022-09-28T09:04:49.881Z,20.21
2022-09-28T09:05:49.874Z,20.20
2022-09-28T09:06:49.860Z,20.21
2022-09-28T09:07:49.879Z,20.21
2022-09-28T09:08:49.843Z,20.20
2022-09-28T09:09:49.831Z,20.21
2022-09-28T09:10:49.818Z,20.21
2022-09-28T09:11:49.812Z,20.24
2022-09-28T09:12:49.892Z,20.23
2022-09-28T09:13:49.790Z,20.24
2022-09-28T09:14:49.775Z,20.24
2022-09-28T09:15:49.788Z,20.26
2022-09-28T09:16:49.820Z,20.26
2022-09-28T09:17:49.744Z,20.24
2022-09-28T09:18:49.733Z,20.26
2022-09-28T09:19:49.751Z,20.26
2022-09-28T09:20:49.735Z,20.24
2022-09-28T09:21:49.705Z,20.26
2022-09-28T09:22:49.718Z,20.24
2022-09-28T09:23:49.684Z,20.26
2022-09-28T09:24:49.670Z,20.24
2022-09-28T09:25:49.663Z,20.24
2022-09-28T09:26:49.650Z,20.26
2022-09-28T09:27:49.639Z,20.26
2022-09-28T09:28:49.675Z,20.28
2022-09-28T09:29:49.617Z,20.26
2022-09-28T09:30:49.654Z,20.28
2022-09-28T09:31:49.618Z,20.28
2022-09-28T09:32:49.585Z,20.28
2022-09-28T09:33:49.580Z,20.28
2022-09-28T09:34:49.563Z,20.28
2022-09-28T09:35:49.786Z,20.28
2022-09-28T09:36:49.694Z,20.26
2022-09-28T09:37:49.532Z,20.28
2022-09-28T09:38:49.521Z,20.28
2022-09-28T09:39:49.515Z,20.26
2022-09-28T09:40:49.584Z,20.26
2022-09-28T09:41:49.491Z,20.26
2022-09-28T09:42:49.507Z,20.28
2022-09-28T09:43:49.472Z,20.26
2022-09-28T09:44:49.459Z,20.26
2022-09-28T09:45:49.490Z,20.24
2022-09-28T09:46:54.669Z,20.24
2022-09-28T09:47:49.426Z,20.26
2022-09-28T09:48:49.414Z,20.26
2022-09-28T09:49:49.409Z,20.28
2022-09-28T09:50:49.425Z,20.28
2022-09-28T09:51:49.407Z,20.24
2022-09-28T09:52:49.381Z,20.28
2022-09-28T09:53:49.365Z,20.26
2022-09-28T09:54:49.351Z,20.26
2022-09-28T09:55:49.371Z,20.26
2022-09-28T09:56:49.330Z,20.28
2022-09-28T09:57:49.318Z,20.28
2022-09-28T09:58:49.306Z,20.26
2022-09-28T09:59:49.296Z,20.26
2022-09-28T10:00:49.312Z,20.28
2022-09-28T10:01:49.349Z,20.28
2022-09-28T10:02:49.317Z,20.28
2022-09-28T10:03:49.254Z,20.26
2022-09-28T10:04:49.254Z,20.26
2022-09-28T10:05:49.231Z,20.28
2022-09-28T10:06:49.256Z,20.28
2022-09-28T10:07:49.231Z,20.28
2022-09-28T10:08:49.202Z,20.28
2022-09-28T10:09:49.189Z,20.28
2022-09-28T10:10:49.182Z,20.28
2022-09-28T10:11:49.196Z,20.28
2022-09-28T10:12:49.708Z,20.28
2022-09-28T10:13:49.147Z,20.31
2022-09-28T10:14:49.140Z,20.31
2022-09-28T10:15:49.127Z,20.29
2022-09-28T10:16:49.303Z,20.32
2022-09-28T10:17:49.106Z,20.32
2022-09-28T10:18:49.095Z,20.32
2022-09-28T10:19:49.096Z,20.32
2022-09-28T10:20:49.076Z,20.32
2022-09-28T10:21:49.089Z,20.33
2022-09-28T10:22:49.063Z,20.33
2022-09-28T10:23:49.069Z,20.33
2022-09-28T10:24:49.034Z,20.33
2022-09-28T10:25:49.020Z,20.33
2022-09-28T10:26:49.042Z,20.35
2022-09-28T10:27:49.031Z,20.36
2022-09-28T10:28:48.990Z,20.35
2022-09-28T10:29:48.981Z,20.36
2022-09-28T10:30:49.030Z,20.35
2022-09-28T10:31:48.957Z,20.36
2022-09-28T10:32:48.974Z,20.36
2022-09-28T10:33:48.937Z,20.38
2022-09-28T10:34:50.980Z,20.36
2022-09-28T10:35:48.915Z,20.38
2022-09-28T10:36:48.908Z,20.35
2022-09-28T10:37:48.922Z,20.35
2022-09-28T10:38:48.893Z,20.35
2022-09-28T10:39:48.909Z,20.35
2022-09-28T10:40:48.932Z,20.35
2022-09-28T10:41:48.854Z,20.33
2022-09-28T10:42:48.871Z,20.35
2022-09-28T10:43:50.183Z,20.35
2022-09-28T10:44:48.821Z,20.32
2022-09-28T10:45:48.899Z,20.32
2022-09-28T10:46:48.800Z,20.32
2022-09-28T10:47:48.791Z,20.32
2022-09-28T10:48:48.779Z,20.31
2022-09-28T10:49:48.798Z,20.31
2022-09-28T10:50:48.757Z,20.29
2022-09-28T10:51:48.748Z,20.31
2022-09-28T10:52:48.735Z,20.32
2022-09-28T10:53:48.725Z,20.31
2022-09-28T10:54:48.741Z,20.31
2022-09-28T10:55:48.737Z,20.32
2022-09-28T10:56:48.694Z,20.32
2022-09-28T10:57:48.686Z,20.31
2022-09-28T10:58:48.672Z,20.29
2022-09-28T10:59:48.692Z,20.29
2022-09-28T11:00:48.654Z,20.29
2022-09-28T11:01:48.711Z,20.29
2022-09-28T11:02:48.655Z,20.28
2022-09-28T11:03:48.621Z,20.26
2022-09-28T11:04:48.654Z,20.26
2022-09-28T11:05:48.598Z,20.26
2022-09-28T11:06:48.667Z,20.26
2022-09-28T11:07:48.579Z,20.24
2022-09-28T11:08:48.566Z,20.23
2022-09-28T11:09:48.887Z,20.23
2022-09-28T11:10:48.572Z,20.23
2022-09-28T11:11:48.562Z,20.23
2022-09-28T11:12:48.525Z,20.23
2022-09-28T11:13:48.512Z,20.23
2022-09-28T11:14:48.505Z,20.23
2022-09-28T11:15:48.525Z,20.23
2022-09-28T11:16:48.498Z,20.24
2022-09-28T11:17:48.473Z,20.23
2022-09-28T11:18:48.470Z,20.23
2022-09-28T11:19:48.450Z,20.24
2022-09-28T11:20:48.468Z,20.24
2022-09-28T11:21:48.431Z,20.23
2022-09-28T11:22:51.283Z,20.23
2022-09-28T11:23:48.412Z,20.21
2022-09-28T11:24:48.397Z,20.21
2022-09-28T11:25:48.420Z,20.21
2022-09-28T11:26:48.400Z,20.23
2022-09-28T11:27:48.394Z,20.20
2022-09-28T11:28:48.356Z,20.21
2022-09-28T11:29:48.347Z,20.23
2022-09-28T11:30:48.504Z,20.23
2022-09-28T11:31:48.373Z,20.24
2022-09-28T11:32:48.312Z,20.23
2022-09-28T11:33:48.311Z,20.21
2022-09-28T11:34:58.976Z,20.24
2022-09-28T11:35:49.282Z,20.24
2022-09-28T11:36:48.270Z,20.24
2022-09-28T11:37:48.289Z,20.24
2022-09-28T11:38:48.250Z,20.24
2022-09-28T11:39:48.242Z,20.26
2022-09-28T11:40:48.268Z,20.26
2022-09-28T11:41:48.217Z,20.26
2022-09-28T11:42:48.234Z,20.26
2022-09-28T11:43:48.329Z,20.28
2022-09-28T11:44:48.184Z,20.26
2022-09-28T11:45:48.251Z,20.28
2022-09-28T11:46:48.168Z,20.24
2022-09-28T11:47:48.157Z,20.24
2022-09-28T11:48:48.174Z,20.24
2022-09-28T11:49:48.138Z,20.24
2022-09-28T11:50:48.124Z,20.23
2022-09-28T11:51:48.115Z,20.24
2022-09-28T11:52:48.101Z,20.21
2022-09-28T11:53:48.143Z,20.23
2022-09-28T11:54:48.081Z,20.21
2022-09-28T11:55:48.069Z,20.20
2022-09-28T11:56:48.056Z,20.20
2022-09-28T11:57:48.052Z,20.20
2022-09-28T11:58:48.036Z,20.20
2022-09-28T11:59:48.102Z,20.20
2022-09-28T12:00:48.017Z,20.23
2022-09-28T12:01:48.010Z,20.21
2022-09-28T12:02:48.188Z,20.21
2022-09-28T12:03:48.041Z,20.21
2022-09-28T12:04:48.002Z,20.21
2022-09-28T12:05:47.965Z,20.23
2022-09-28T12:06:47.953Z,20.21
2022-09-28T12:07:47.942Z,20.21
2022-09-28T12:08:47.931Z,20.20
2022-09-28T12:09:47.947Z,20.20
2022-09-28T12:10:47.909Z,20.20
2022-09-28T12:11:47.904Z,20.18
2022-09-28T12:12:47.915Z,20.18
2022-09-28T12:13:47.880Z,20.17
2022-09-28T12:14:47.867Z,20.17
2022-09-28T12:16:17.137Z,20.18
2022-09-28T12:17:07.390Z,20.17
2022-09-28T12:17:48.922Z,20.17
2022-09-28T12:18:47.880Z,20.17
2022-09-28T12:19:47.821Z,20.17
2022-09-28T12:20:47.833Z,20.16
2022-09-28T12:21:47.798Z,20.16
2022-09-28T12:22:47.784Z,20.16
2022-09-28T12:23:47.774Z,20.16
2022-09-28T12:24:47.764Z,20.14
2022-09-28T12:25:47.797Z,20.16
2022-09-28T12:26:47.742Z,20.16
2022-09-28T12:27:47.795Z,20.16
2022-09-28T12:28:47.720Z,20.14
2022-09-28T12:29:47.722Z,20.16
2022-09-28T12:30:47.791Z,20.16
2022-09-28T12:31:47.715Z,20.16
2022-09-28T12:32:47.679Z,20.14
2022-09-28T12:33:47.671Z,20.16
2022-09-28T12:34:47.657Z,20.13
2022-09-28T12:35:47.647Z,20.16
2022-09-28T12:36:47.669Z,20.14
2022-09-28T12:37:50.543Z,20.16
2022-09-28T12:38:54.126Z,20.13
2022-09-28T12:39:57.463Z,20.14
2022-09-28T12:40:48.650Z,20.14
2022-09-28T12:41:47.615Z,20.14
2022-09-28T12:42:47.574Z,20.14
2022-09-28T12:43:47.567Z,20.14
2022-09-28T12:44:47.554Z,20.14
2022-09-28T12:46:10.381Z,20.13
2022-09-28T12:46:48.618Z,20.14
2022-09-28T12:47:47.571Z,20.14
2022-09-28T12:48:57.205Z,20.14
2022-09-28T12:50:36.375Z,20.14
2022-09-28T12:50:56.752Z,20.13
2022-09-28T12:51:48.486Z,20.14
2022-09-28T12:52:47.513Z,20.14